Maersk Kobe — 9HA3376 — position and weather

sailwx.info

Track history (hours):
 
Tides and Currents Weather Stations Pressure Air Temp Water Temp Dewpoint Dewpoint Depression Visibility Wind Speed Wind Dir Waves Ship Positions

Maersk Kobe

Last reported at 2017-Sep-21 13:34 UTC. Time now 2017-Sep-21 15:57 UTC.
Position N 36°49' W 075°47'.

Length 304 m; draft 9.3 m.

Type: Ship (hazmat cat A). MMSI: 229521000.

Date/timePositionNaut miles runAvg speedWind from/ knotsBaromVisibWave heightAir tempDewpointWater temp
2017-Sep-21 13:34N 36°49' W 075°47'212.4
2017-Sep-21 13:22N 36°51' W 075°50'412.2
2017-Sep-21 13:00N 36°53' W 075°54'612.0
2017-Sep-21 12:30N 36°57' W 076°00'714.2
2017-Sep-21 12:00N 36°59' W 076°09'815.6
2017-Sep-21 11:29N 36°59' W 076°19'5 9.6
2017-Sep-21 11:00N 36°55' W 076°20'3 6.2
2017-Sep-21 10:30N 36°52' W 076°19'0 0.3
2017-Sep-21 10:00N 36°51' W 076°19'0 0.0
2017-Sep-21 09:30N 36°51' W 076°19'0 0.0
2017-Sep-21 09:00N 36°51' W 076°19'0 0.0
2017-Sep-21 08:30N 36°51' W 076°19'0 0.0
2017-Sep-21 08:00N 36°51' W 076°19'0 0.0
2017-Sep-21 07:30N 36°51' W 076°19'0 0.0
2017-Sep-21 07:00N 36°51' W 076°19'0 0.0
2017-Sep-21 06:30N 36°51' W 076°19'0 0.0
2017-Sep-21 06:00N 36°51' W 076°19'0 0.0
2017-Sep-21 05:30N 36°51' W 076°19'0 0.0
2017-Sep-21 05:00N 36°51' W 076°19'0 0.0
2017-Sep-21 04:30N 36°51' W 076°19'0 0.0
2017-Sep-21 04:00N 36°51' W 076°19'0 0.0
2017-Sep-21 03:30N 36°51' W 076°19'0 0.0
2017-Sep-21 03:00N 36°51' W 076°19'0 0.0
2017-Sep-21 02:30N 36°51' W 076°19'0 0.0
2017-Sep-21 02:00N 36°51' W 076°19'0 0.0
2017-Sep-21 01:30N 36°51' W 076°19'0 0.0
2017-Sep-21 00:57N 36°51' W 076°19'0 0.0
2017-Sep-21 00:30N 36°51' W 076°19'0 0.0
2017-Sep-21 00:00N 36°51' W 076°19'0 0.0
2017-Sep-20 23:30N 36°51' W 076°19'0 0.0
2017-Sep-20 23:00N 36°51' W 076°19'0 0.0
2017-Sep-20 22:30N 36°51' W 076°19'0 0.0
2017-Sep-20 22:00N 36°51' W 076°19'0 0.0
2017-Sep-20 21:30N 36°51' W 076°19'0 0.0
2017-Sep-20 21:01N 36°51' W 076°19'1 1.2
2017-Sep-20 20:30N 36°52' W 076°20'3 6.9
2017-Sep-20 20:00N 36°55' W 076°20'5 9.4
2017-Sep-20 19:30N 36°60' W 076°18'714.2
2017-Sep-20 19:00N 36°59' W 076°09'816.1
2017-Sep-20 18:30N 36°57' W 075°60'612.7
2017-Sep-20 18:00N 36°54' W 075°53'612.0
2017-Sep-20 17:30N 36°50' W 075°47'611.5
2017-Sep-20 16:58N 36°45' W 075°42'1 1.1
2017-Sep-20 16:23N 36°46' W 075°42'1 1.8
2017-Sep-20 16:00N 36°47' W 075°42'1 1.5
2017-Sep-20 15:30N 36°47' W 075°42'9 5.3
2017-Sep-20 13:44N 36°52' W 075°52'312.3
2017-Sep-20 13:30N 36°54' W 075°55'510.8
2017-Sep-20 13:00N 36°58' W 075°60'510.2
2017-Sep-20 12:30N 37°02' W 076°04'916.9
2017-Sep-20 12:00N 37°09' W 076°09'4517.3
2017-Sep-20 09:23N 37°54' W 076°10'1319.8
2017-Sep-20 08:44N 38°07' W 076°13'520.6
2017-Sep-20 08:29N 38°12' W 076°15'3119.6
2017-Sep-20 06:53N 38°42' W 076°26'820.1
2017-Sep-20 06:30N 38°50' W 076°24'1020.2
2017-Sep-20 06:00N 38°60' W 076°23'714.7
2017-Sep-20 05:30N 39°07' W 076°24'612.7
2017-Sep-20 05:00N 39°12' W 076°29'5 9.4
2017-Sep-20 04:30N 39°15' W 076°34'1 1.3
2017-Sep-20 03:59N 39°15' W 076°33'0 0.0
2017-Sep-20 03:29N 39°15' W 076°33'0 0.0
2017-Sep-20 02:59N 39°15' W 076°33'0 0.0
2017-Sep-20 02:29N 39°15' W 076°33'0 0.0
2017-Sep-20 01:59N 39°15' W 076°33'0 0.0
2017-Sep-20 01:29N 39°15' W 076°33'0 0.0
2017-Sep-20 00:59N 39°15' W 076°33'0 0.0
2017-Sep-20 00:29N 39°15' W 076°33'0 0.0
2017-Sep-19 23:59N 39°15' W 076°33'0 0.0
2017-Sep-19 23:29N 39°15' W 076°33'0 0.0
2017-Sep-19 22:59N 39°15' W 076°33'0 0.0
2017-Sep-19 22:29N 39°15' W 076°33'0 0.0
2017-Sep-19 21:59N 39°15' W 076°33'0 0.0
2017-Sep-19 21:29N 39°15' W 076°33'0 0.0
2017-Sep-19 20:59N 39°15' W 076°33'0 0.0
2017-Sep-19 20:29N 39°15' W 076°33'0 0.0
2017-Sep-19 19:59N 39°15' W 076°33'0 0.0
2017-Sep-19 19:29N 39°15' W 076°33'0 0.0
2017-Sep-19 18:59N 39°15' W 076°33'0 0.0
2017-Sep-19 18:29N 39°15' W 076°33'0 0.0
2017-Sep-19 17:59N 39°15' W 076°33'0 0.0
2017-Sep-19 17:29N 39°15' W 076°33'0 0.0
2017-Sep-19 16:59N 39°15' W 076°33'0 0.0
2017-Sep-19 16:29N 39°15' W 076°33'0 0.0
2017-Sep-19 15:59N 39°15' W 076°33'0 0.0
2017-Sep-19 15:29N 39°15' W 076°33'0 0.0
2017-Sep-19 14:59N 39°15' W 076°33'0 0.0
2017-Sep-19 14:29N 39°15' W 076°33'0 0.0
2017-Sep-19 13:59N 39°15' W 076°33'0 0.0
2017-Sep-19 13:29N 39°15' W 076°33'0 0.0
2017-Sep-19 12:59N 39°15' W 076°33'0 0.0
2017-Sep-19 12:29N 39°15' W 076°33'0 0.0
2017-Sep-19 11:59N 39°15' W 076°33'0 0.0
2017-Sep-19 11:29N 39°15' W 076°33'0 0.0
2017-Sep-19 10:59N 39°15' W 076°33'0 0.0
2017-Sep-19 10:29N 39°15' W 076°33'0 0.0
2017-Sep-19 09:59N 39°15' W 076°33'0 0.0
2017-Sep-19 09:29N 39°15' W 076°33'0 1.1
2017-Sep-19 09:00N 39°15' W 076°33'2 4.8
2017-Sep-19 08:30N 39°13' W 076°31'5 9.3
2017-Sep-19 08:00N 39°11' W 076°26'612.7
2017-Sep-19 07:30N 39°04' W 076°24'713.9
2017-Sep-19 07:00N 38°57' W 076°24'918.8
2017-Sep-19 06:31N 38°48' W 076°25'1019.9
2017-Sep-19 06:00N 38°38' W 076°25'1019.3
2017-Sep-19 05:30N 38°28' W 076°23'1020.5
2017-Sep-19 04:59N 38°19' W 076°18'1020.3
2017-Sep-19 04:31N 38°10' W 076°14'1220.1
2017-Sep-19 03:54N 37°58' W 076°11'819.4
2017-Sep-19 03:31N 37°50' W 076°09'1018.9
2017-Sep-19 02:59N 37°40' W 076°09'917.7
2017-Sep-19 02:30N 37°34' W 076°02'1416.8
2017-Sep-19 01:38N 37°19' W 076°06'319.1
2017-Sep-19 01:29N 37°17' W 076°07'816.9
2017-Sep-19 00:59N 37°08' W 076°09'917.8
2017-Sep-19 00:30N 37°01' W 076°03'714.3
2017-Sep-19 00:00N 36°56' W 075°57'5 9.2
2017-Sep-18 23:30N 36°53' W 075°52'4 7.8
2017-Sep-18 23:00N 36°51' W 075°48'5 9.1
2017-Sep-18 22:30N 36°49' W 075°43'2 3.5
2017-Sep-18 21:58N 36°48' W 075°41'1 1.8
2017-Sep-18 21:25N 36°49' W 075°41'4311.1
2017-Sep-18 17:30N 37°09' W 074°53'7313.6
2017-Sep-18 12:06N 37°51' W 073°37'112.4
2017-Sep-18 11:59N 37°52' W 073°35'2812.2
2017-Sep-18 09:42N 38°07' W 073°05'211.9
2017-Sep-18 09:29N 38°08' W 073°03'712.0
2017-Sep-18 08:56N 38°12' W 072°56'712.0
2017-Sep-18 08:23N 38°15' W 072°49'1512.0
2017-Sep-18 07:06N 38°24' W 072°32'612.0
2017-Sep-18 06:38N 38°27' W 072°27'1212.3
2017-Sep-18 05:38N 38°34' W 072°13'212.7
2017-Sep-18 05:28N 38°35' W 072°11'226 9.4
2017-Sep-17 05:28N 41°52' W 069°45'1512.6
2017-Sep-17 04:17N 42°05' W 069°54'312.4
2017-Sep-17 04:00N 42°08' W 069°56'612.3
2017-Sep-17 03:30N 42°14' W 069°60'611.2
2017-Sep-17 03:00N 42°17' W 070°06'613.0
2017-Sep-17 02:30N 42°18' W 070°15'612.5
2017-Sep-17 02:00N 42°18' W 070°23'612.1
2017-Sep-17 01:30N 42°19' W 070°31'612.3
2017-Sep-17 01:00N 42°20' W 070°40'611.9
2017-Sep-17 00:30N 42°23' W 070°46'611.8
2017-Sep-17 00:01N 42°22' W 070°54'510.3
2017-Sep-16 23:30N 42°20' W 071°00'1 1.7
2017-Sep-16 22:58N 42°21' W 071°01'0 0.0
2017-Sep-16 22:28N 42°21' W 071°01'0 0.0
2017-Sep-16 21:58N 42°21' W 071°01'0 0.0
2017-Sep-16 21:28N 42°21' W 071°01'0 0.0
2017-Sep-16 20:58N 42°21' W 071°01'0 0.0
2017-Sep-16 20:28N 42°21' W 071°01'0 0.0
2017-Sep-16 19:58N 42°21' W 071°01'0 0.0
2017-Sep-16 19:28N 42°21' W 071°01'0 0.0
2017-Sep-16 18:58N 42°21' W 071°01'0 0.0
2017-Sep-16 18:28N 42°21' W 071°01'0 0.0
2017-Sep-16 17:58N 42°21' W 071°01'0 0.0
2017-Sep-16 17:28N 42°21' W 071°01'0 0.0
2017-Sep-16 16:58N 42°21' W 071°01'0 0.0
2017-Sep-16 16:25N 42°21' W 071°01'0 0.0
2017-Sep-16 15:55N 42°21' W 071°01'0 0.0
2017-Sep-16 15:28N 42°21' W 071°01'0 0.0
2017-Sep-16 14:58N 42°21' W 071°01'0 0.0
2017-Sep-16 14:28N 42°21' W 071°01'0 0.0
2017-Sep-16 13:58N 42°21' W 071°01'0 0.0
2017-Sep-16 13:28N 42°21' W 071°01'0 0.0
2017-Sep-16 12:58N 42°21' W 071°01'0 0.0
2017-Sep-16 12:25N 42°21' W 071°01'0 0.0
2017-Sep-16 11:58N 42°21' W 071°01'0 0.0
2017-Sep-16 11:28N 42°21' W 071°01'0 0.0
2017-Sep-16 10:55N 42°21' W 071°01'0 0.0
2017-Sep-16 10:28N 42°21' W 071°01'0 0.0
2017-Sep-16 09:58N 42°21' W 071°01'0 0.0
2017-Sep-16 09:28N 42°21' W 071°01'0 0.0
2017-Sep-16 08:58N 42°21' W 071°01'0 0.0
2017-Sep-16 08:28N 42°21' W 071°01'0 0.0
2017-Sep-16 07:55N 42°21' W 071°01'0 0.0
2017-Sep-16 07:28N 42°21' W 071°01'0 0.0
2017-Sep-16 06:58N 42°21' W 071°01'0 0.0
2017-Sep-16 06:28N 42°21' W 071°01'0 0.0
2017-Sep-16 05:58N 42°21' W 071°01'0 0.0
2017-Sep-16 05:28N 42°21' W 071°01'0 0.0
2017-Sep-16 04:58N 42°21' W 071°01'0 0.0
2017-Sep-16 04:28N 42°21' W 071°01'0 0.0
2017-Sep-16 03:58N 42°21' W 071°01'0 0.0
2017-Sep-16 03:28N 42°21' W 071°01'0 0.0
2017-Sep-16 02:58N 42°21' W 071°01'0 0.0
2017-Sep-16 02:28N 42°21' W 071°01'0 0.0
2017-Sep-16 01:58N 42°21' W 071°01'0 0.0
2017-Sep-16 01:28N 42°21' W 071°01'0 0.7
2017-Sep-16 01:00N 42°21' W 071°01'3 5.5
2017-Sep-16 00:31N 42°20' W 070°57'5 9.2
2017-Sep-16 00:01N 42°23' W 070°53'4 8.7
2017-Sep-15 23:30N 42°24' W 070°47'3 6.7
2017-Sep-15 23:00N 42°23' W 070°42'4 7.8
2017-Sep-15 22:30N 42°22' W 070°37'612.0
2017-Sep-15 22:00N 42°21' W 070°29'612.3
2017-Sep-15 21:30N 42°21' W 070°21'612.7
2017-Sep-15 21:00N 42°20' W 070°12'612.7
2017-Sep-15 20:30N 42°20' W 070°04'611.1
2017-Sep-15 20:00N 42°16' W 069°58'612.4
2017-Sep-15 19:30N 42°11' W 069°54'612.3
2017-Sep-15 19:00N 42°05' W 069°50'1112.8
2017-Sep-15 18:08N 41°55' W 069°43'312.2
2017-Sep-15 17:53N 41°53' W 069°42'712.4
2017-Sep-15 17:18N 41°46' W 069°37'412.8
2017-Sep-15 17:00N 41°43' W 069°35'192 8.6
2017-Sep-14 18:44N 40°23' W 073°26'313.0
2017-Sep-14 18:29N 40°24' W 073°31'612.6
2017-Sep-14 17:58N 40°26' W 073°39'612.7
2017-Sep-14 17:30N 40°27' W 073°46'611.5
2017-Sep-14 17:01N 40°29' W 073°53'815.5
2017-Sep-14 16:31N 40°33' W 074°02'612.7
2017-Sep-14 16:00N 40°39' W 074°05'3 5.5
2017-Sep-14 15:30N 40°39' W 074°09'1 1.6
2017-Sep-14 15:00N 40°40' W 074°09'0 0.0
2017-Sep-14 14:30N 40°40' W 074°09'0 0.0
2017-Sep-14 14:00N 40°40' W 074°09'0 0.0
2017-Sep-14 13:30N 40°40' W 074°09'0 0.0
2017-Sep-14 13:00N 40°40' W 074°09'0 0.0
2017-Sep-14 12:30N 40°40' W 074°09'0 0.0
2017-Sep-14 12:00N 40°40' W 074°09'0 0.0
2017-Sep-14 11:30N 40°40' W 074°09'0 0.0
2017-Sep-14 11:00N 40°40' W 074°09'0 0.0
2017-Sep-14 10:30N 40°40' W 074°09'0 0.0
2017-Sep-14 10:00N 40°40' W 074°09'0 0.0
2017-Sep-14 09:30N 40°40' W 074°09'0 0.0
2017-Sep-14 09:00N 40°40' W 074°09'0 0.0
2017-Sep-14 08:30N 40°40' W 074°09'0 0.0
2017-Sep-14 08:00N 40°40' W 074°09'0 0.0
2017-Sep-14 07:30N 40°40' W 074°09'0 0.0
2017-Sep-14 07:00N 40°40' W 074°09'0 0.0
2017-Sep-14 06:30N 40°40' W 074°09'0 0.0
2017-Sep-14 06:00N 40°40' W 074°09'0 0.0
2017-Sep-14 05:30N 40°40' W 074°09'0 0.0
2017-Sep-14 05:00N 40°40' W 074°09'0 0.0
2017-Sep-14 04:30N 40°40' W 074°09'0 0.0
2017-Sep-14 04:00N 40°40' W 074°09'0 0.0
2017-Sep-14 03:30N 40°40' W 074°09'0 0.0
2017-Sep-14 03:00N 40°40' W 074°09'0 0.0
2017-Sep-14 02:30N 40°40' W 074°09'0 0.0
2017-Sep-14 02:00N 40°40' W 074°09'0 0.0
2017-Sep-14 01:30N 40°40' W 074°09'0 0.0
2017-Sep-14 01:00N 40°40' W 074°09'0 0.0
2017-Sep-14 00:30N 40°40' W 074°09'0 0.0
2017-Sep-14 00:00N 40°40' W 074°09'0 0.0
2017-Sep-13 23:30N 40°40' W 074°09'0 0.0
2017-Sep-13 23:00N 40°40' W 074°09'0 0.0
2017-Sep-13 22:30N 40°40' W 074°09'0 0.0
2017-Sep-13 22:00N 40°40' W 074°09'0 0.0
2017-Sep-13 21:30N 40°40' W 074°09'0 0.0
2017-Sep-13 21:00N 40°40' W 074°09'0 0.0
2017-Sep-13 20:30N 40°40' W 074°09'0 0.0
2017-Sep-13 20:00N 40°40' W 074°09'0 0.0
2017-Sep-13 19:30N 40°40' W 074°09'0 0.0
2017-Sep-13 19:00N 40°40' W 074°09'0 0.0
2017-Sep-13 18:27N 40°40' W 074°09'0 0.0
2017-Sep-13 18:00N 40°40' W 074°09'0 0.0
2017-Sep-13 17:30N 40°40' W 074°09'0 0.0
2017-Sep-13 17:00N 40°40' W 074°09'0 0.0
2017-Sep-13 16:30N 40°40' W 074°09'0 0.0
2017-Sep-13 16:00N 40°40' W 074°09'0 0.0
2017-Sep-13 15:30N 40°40' W 074°09'0 1.0
2017-Sep-13 15:00N 40°39' W 074°09'2 4.8
2017-Sep-13 14:30N 40°39' W 074°06'4 7.7
2017-Sep-13 14:00N 40°36' W 074°02'5 9.1
2017-Sep-13 13:30N 40°32' W 074°01'611.6
2017-Sep-13 13:00N 40°29' W 073°54'5 9.8
2017-Sep-13 12:30N 40°27' W 073°48'5 9.8
2017-Sep-13 12:00N 40°24' W 073°43'612.3
2017-Sep-13 11:30N 40°20' W 073°36'714.5
2017-Sep-13 11:00N 40°16' W 073°28'714.9
2017-Sep-13 10:31N 40°12' W 073°21'714.8
2017-Sep-13 10:01N 40°08' W 073°12'815.2
2017-Sep-13 09:31N 40°08' W 073°02'815.0
2017-Sep-13 09:00N 40°08' W 072°52'714.9
2017-Sep-13 08:30N 40°08' W 072°43'714.5
2017-Sep-13 08:00N 40°07' W 072°33'714.7
2017-Sep-13 07:30N 40°07' W 072°24'714.4
2017-Sep-13 07:00N 40°06' W 072°14'714.5
2017-Sep-13 06:30N 40°06' W 072°05'714.6
2017-Sep-13 06:00N 40°06' W 071°55'714.8
2017-Sep-13 05:30N 40°06' W 071°45'715.0
2017-Sep-13 05:00N 40°06' W 071°36'815.0
2017-Sep-13 04:30N 40°05' W 071°26'714.9
2017-Sep-13 04:00N 40°05' W 071°16'815.2
2017-Sep-13 03:30N 40°05' W 071°06'714.9
2017-Sep-13 03:00N 40°05' W 070°56'714.9
2017-Sep-13 02:31N 40°05' W 070°47'815.0
2017-Sep-13 02:00N 40°05' W 070°37'715.0
2017-Sep-13 01:30N 40°05' W 070°27'714.6
2017-Sep-13 01:00N 40°04' W 070°17'3 5.5
2017-Sep-13 00:31N 40°04' W 070°14'611.7
2017-Sep-13 00:00N 40°04' W 070°06'714.3
2017-Sep-12 23:30N 40°03' W 069°57'714.6
2017-Sep-12 23:00N 40°03' W 069°47'1014.6
2017-Sep-12 22:21N 40°02' W 069°35'514.5
2017-Sep-12 22:00N 40°02' W 069°29'814.4
2017-Sep-12 21:25N 40°02' W 069°18'614.5
2017-Sep-12 20:59N 40°02' W 069°09'  
Track history (hours):
 
Tides and Currents Weather Stations Pressure Air Temp Water Temp Dewpoint Dewpoint Depression Visibility Wind Speed Wind Dir Waves Ship Positions

Maersk Kobe

Last reported at 2017-Sep-21 13:34 UTC. Time now 2017-Sep-21 15:57 UTC.
Position N 36°49' W 075°47'.

Length 304 m; draft 9.3 m.

Type: Ship (hazmat cat A). MMSI: 229521000.

Date/timePositionNaut miles runAvg speedWind from/ knotsBaromVisibWave heightAir tempDewpointWater temp
2017-Sep-21 13:34N 36°49' W 075°47'212.4
2017-Sep-21 13:22N 36°51' W 075°50'412.2
2017-Sep-21 13:00N 36°53' W 075°54'612.0
2017-Sep-21 12:30N 36°57' W 076°00'714.2
2017-Sep-21 12:00N 36°59' W 076°09'815.6
2017-Sep-21 11:29N 36°59' W 076°19'5 9.6
2017-Sep-21 11:00N 36°55' W 076°20'3 6.2
2017-Sep-21 10:30N 36°52' W 076°19'0 0.3
2017-Sep-21 10:00N 36°51' W 076°19'0 0.0
2017-Sep-21 09:30N 36°51' W 076°19'0 0.0
2017-Sep-21 09:00N 36°51' W 076°19'0 0.0
2017-Sep-21 08:30N 36°51' W 076°19'0 0.0
2017-Sep-21 08:00N 36°51' W 076°19'0 0.0
2017-Sep-21 07:30N 36°51' W 076°19'0 0.0
2017-Sep-21 07:00N 36°51' W 076°19'0 0.0
2017-Sep-21 06:30N 36°51' W 076°19'0 0.0
2017-Sep-21 06:00N 36°51' W 076°19'0 0.0
2017-Sep-21 05:30N 36°51' W 076°19'0 0.0
2017-Sep-21 05:00N 36°51' W 076°19'0 0.0
2017-Sep-21 04:30N 36°51' W 076°19'0 0.0
2017-Sep-21 04:00N 36°51' W 076°19'0 0.0
2017-Sep-21 03:30N 36°51' W 076°19'0 0.0
2017-Sep-21 03:00N 36°51' W 076°19'0 0.0
2017-Sep-21 02:30N 36°51' W 076°19'0 0.0
2017-Sep-21 02:00N 36°51' W 076°19'0 0.0
2017-Sep-21 01:30N 36°51' W 076°19'0 0.0
2017-Sep-21 00:57N 36°51' W 076°19'0 0.0
2017-Sep-21 00:30N 36°51' W 076°19'0 0.0
2017-Sep-21 00:00N 36°51' W 076°19'0 0.0
2017-Sep-20 23:30N 36°51' W 076°19'0 0.0
2017-Sep-20 23:00N 36°51' W 076°19'0 0.0
2017-Sep-20 22:30N 36°51' W 076°19'0 0.0
2017-Sep-20 22:00N 36°51' W 076°19'0 0.0
2017-Sep-20 21:30N 36°51' W 076°19'0 0.0
2017-Sep-20 21:01N 36°51' W 076°19'1 1.2
2017-Sep-20 20:30N 36°52' W 076°20'3 6.9
2017-Sep-20 20:00N 36°55' W 076°20'5 9.4
2017-Sep-20 19:30N 36°60' W 076°18'714.2
2017-Sep-20 19:00N 36°59' W 076°09'816.1
2017-Sep-20 18:30N 36°57' W 075°60'612.7
2017-Sep-20 18:00N 36°54' W 075°53'612.0
2017-Sep-20 17:30N 36°50' W 075°47'611.5
2017-Sep-20 16:58N 36°45' W 075°42'1 1.1
2017-Sep-20 16:23N 36°46' W 075°42'1 1.8
2017-Sep-20 16:00N 36°47' W 075°42'1 1.5
2017-Sep-20 15:30N 36°47' W 075°42'9 5.3
2017-Sep-20 13:44N 36°52' W 075°52'312.3
2017-Sep-20 13:30N 36°54' W 075°55'510.8
2017-Sep-20 13:00N 36°58' W 075°60'510.2
2017-Sep-20 12:30N 37°02' W 076°04'916.9
2017-Sep-20 12:00N 37°09' W 076°09'4517.3
2017-Sep-20 09:23N 37°54' W 076°10'1319.8
2017-Sep-20 08:44N 38°07' W 076°13'520.6
2017-Sep-20 08:29N 38°12' W 076°15'3119.6
2017-Sep-20 06:53N 38°42' W 076°26'820.1
2017-Sep-20 06:30N 38°50' W 076°24'1020.2
2017-Sep-20 06:00N 38°60' W 076°23'714.7
2017-Sep-20 05:30N 39°07' W 076°24'612.7
2017-Sep-20 05:00N 39°12' W 076°29'5 9.4
2017-Sep-20 04:30N 39°15' W 076°34'1 1.3
2017-Sep-20 03:59N 39°15' W 076°33'0 0.0
2017-Sep-20 03:29N 39°15' W 076°33'0 0.0
2017-Sep-20 02:59N 39°15' W 076°33'0 0.0
2017-Sep-20 02:29N 39°15' W 076°33'0 0.0
2017-Sep-20 01:59N 39°15' W 076°33'0 0.0
2017-Sep-20 01:29N 39°15' W 076°33'0 0.0
2017-Sep-20 00:59N 39°15' W 076°33'0 0.0
2017-Sep-20 00:29N 39°15' W 076°33'0 0.0
2017-Sep-19 23:59N 39°15' W 076°33'0 0.0
2017-Sep-19 23:29N 39°15' W 076°33'0 0.0
2017-Sep-19 22:59N 39°15' W 076°33'0 0.0
2017-Sep-19 22:29N 39°15' W 076°33'0 0.0
2017-Sep-19 21:59N 39°15' W 076°33'0 0.0
2017-Sep-19 21:29N 39°15' W 076°33'0 0.0
2017-Sep-19 20:59N 39°15' W 076°33'0 0.0
2017-Sep-19 20:29N 39°15' W 076°33'0 0.0
2017-Sep-19 19:59N 39°15' W 076°33'0 0.0
2017-Sep-19 19:29N 39°15' W 076°33'0 0.0
2017-Sep-19 18:59N 39°15' W 076°33'0 0.0
2017-Sep-19 18:29N 39°15' W 076°33'0 0.0
2017-Sep-19 17:59N 39°15' W 076°33'0 0.0
2017-Sep-19 17:29N 39°15' W 076°33'0 0.0
2017-Sep-19 16:59N 39°15' W 076°33'0 0.0
2017-Sep-19 16:29N 39°15' W 076°33'0 0.0
2017-Sep-19 15:59N 39°15' W 076°33'0 0.0
2017-Sep-19 15:29N 39°15' W 076°33'0 0.0
2017-Sep-19 14:59N 39°15' W 076°33'0 0.0
2017-Sep-19 14:29N 39°15' W 076°33'0 0.0
2017-Sep-19 13:59N 39°15' W 076°33'0 0.0
2017-Sep-19 13:29N 39°15' W 076°33'0 0.0
2017-Sep-19 12:59N 39°15' W 076°33'0 0.0
2017-Sep-19 12:29N 39°15' W 076°33'0 0.0
2017-Sep-19 11:59N 39°15' W 076°33'0 0.0
2017-Sep-19 11:29N 39°15' W 076°33'0 0.0
2017-Sep-19 10:59N 39°15' W 076°33'0 0.0
2017-Sep-19 10:29N 39°15' W 076°33'0 0.0
2017-Sep-19 09:59N 39°15' W 076°33'0 0.0
2017-Sep-19 09:29N 39°15' W 076°33'0 1.1
2017-Sep-19 09:00N 39°15' W 076°33'2 4.8
2017-Sep-19 08:30N 39°13' W 076°31'5 9.3
2017-Sep-19 08:00N 39°11' W 076°26'612.7
2017-Sep-19 07:30N 39°04' W 076°24'713.9
2017-Sep-19 07:00N 38°57' W 076°24'918.8
2017-Sep-19 06:31N 38°48' W 076°25'1019.9
2017-Sep-19 06:00N 38°38' W 076°25'1019.3
2017-Sep-19 05:30N 38°28' W 076°23'1020.5
2017-Sep-19 04:59N 38°19' W 076°18'1020.3
2017-Sep-19 04:31N 38°10' W 076°14'1220.1
2017-Sep-19 03:54N 37°58' W 076°11'819.4
2017-Sep-19 03:31N 37°50' W 076°09'1018.9
2017-Sep-19 02:59N 37°40' W 076°09'917.7
2017-Sep-19 02:30N 37°34' W 076°02'1416.8
2017-Sep-19 01:38N 37°19' W 076°06'319.1
2017-Sep-19 01:29N 37°17' W 076°07'816.9
2017-Sep-19 00:59N 37°08' W 076°09'917.8
2017-Sep-19 00:30N 37°01' W 076°03'714.3
2017-Sep-19 00:00N 36°56' W 075°57'5 9.2
2017-Sep-18 23:30N 36°53' W 075°52'4 7.8
2017-Sep-18 23:00N 36°51' W 075°48'5 9.1
2017-Sep-18 22:30N 36°49' W 075°43'2 3.5
2017-Sep-18 21:58N 36°48' W 075°41'1 1.8
2017-Sep-18 21:25N 36°49' W 075°41'4311.1
2017-Sep-18 17:30N 37°09' W 074°53'7313.6
2017-Sep-18 12:06N 37°51' W 073°37'112.4
2017-Sep-18 11:59N 37°52' W 073°35'2812.2
2017-Sep-18 09:42N 38°07' W 073°05'211.9
2017-Sep-18 09:29N 38°08' W 073°03'712.0
2017-Sep-18 08:56N 38°12' W 072°56'712.0
2017-Sep-18 08:23N 38°15' W 072°49'1512.0
2017-Sep-18 07:06N 38°24' W 072°32'612.0
2017-Sep-18 06:38N 38°27' W 072°27'1212.3
2017-Sep-18 05:38N 38°34' W 072°13'212.7
2017-Sep-18 05:28N 38°35' W 072°11'226 9.4
2017-Sep-17 05:28N 41°52' W 069°45'1512.6
2017-Sep-17 04:17N 42°05' W 069°54'312.4
2017-Sep-17 04:00N 42°08' W 069°56'612.3
2017-Sep-17 03:30N 42°14' W 069°60'611.2
2017-Sep-17 03:00N 42°17' W 070°06'613.0
2017-Sep-17 02:30N 42°18' W 070°15'612.5
2017-Sep-17 02:00N 42°18' W 070°23'612.1
2017-Sep-17 01:30N 42°19' W 070°31'612.3
2017-Sep-17 01:00N 42°20' W 070°40'611.9
2017-Sep-17 00:30N 42°23' W 070°46'611.8
2017-Sep-17 00:01N 42°22' W 070°54'510.3
2017-Sep-16 23:30N 42°20' W 071°00'1 1.7
2017-Sep-16 22:58N 42°21' W 071°01'0 0.0
2017-Sep-16 22:28N 42°21' W 071°01'0 0.0
2017-Sep-16 21:58N 42°21' W 071°01'0 0.0
2017-Sep-16 21:28N 42°21' W 071°01'0 0.0
2017-Sep-16 20:58N 42°21' W 071°01'0 0.0
2017-Sep-16 20:28N 42°21' W 071°01'0 0.0
2017-Sep-16 19:58N 42°21' W 071°01'0 0.0
2017-Sep-16 19:28N 42°21' W 071°01'0 0.0
2017-Sep-16 18:58N 42°21' W 071°01'0 0.0
2017-Sep-16 18:28N 42°21' W 071°01'0 0.0
2017-Sep-16 17:58N 42°21' W 071°01'0 0.0
2017-Sep-16 17:28N 42°21' W 071°01'0 0.0
2017-Sep-16 16:58N 42°21' W 071°01'0 0.0
2017-Sep-16 16:25N 42°21' W 071°01'0 0.0
2017-Sep-16 15:55N 42°21' W 071°01'0 0.0
2017-Sep-16 15:28N 42°21' W 071°01'0 0.0
2017-Sep-16 14:58N 42°21' W 071°01'0 0.0
2017-Sep-16 14:28N 42°21' W 071°01'0 0.0
2017-Sep-16 13:58N 42°21' W 071°01'0 0.0
2017-Sep-16 13:28N 42°21' W 071°01'0 0.0
2017-Sep-16 12:58N 42°21' W 071°01'0 0.0
2017-Sep-16 12:25N 42°21' W 071°01'0 0.0
2017-Sep-16 11:58N 42°21' W 071°01'0 0.0
2017-Sep-16 11:28N 42°21' W 071°01'0 0.0
2017-Sep-16 10:55N 42°21' W 071°01'0 0.0
2017-Sep-16 10:28N 42°21' W 071°01'0 0.0
2017-Sep-16 09:58N 42°21' W 071°01'0 0.0
2017-Sep-16 09:28N 42°21' W 071°01'0 0.0
2017-Sep-16 08:58N 42°21' W 071°01'0 0.0
2017-Sep-16 08:28N 42°21' W 071°01'0 0.0
2017-Sep-16 07:55N 42°21' W 071°01'0 0.0
2017-Sep-16 07:28N 42°21' W 071°01'0 0.0
2017-Sep-16 06:58N 42°21' W 071°01'0 0.0
2017-Sep-16 06:28N 42°21' W 071°01'0 0.0
2017-Sep-16 05:58N 42°21' W 071°01'0 0.0
2017-Sep-16 05:28N 42°21' W 071°01'0 0.0
2017-Sep-16 04:58N 42°21' W 071°01'0 0.0
2017-Sep-16 04:28N 42°21' W 071°01'0 0.0
2017-Sep-16 03:58N 42°21' W 071°01'0 0.0
2017-Sep-16 03:28N 42°21' W 071°01'0 0.0
2017-Sep-16 02:58N 42°21' W 071°01'0 0.0
2017-Sep-16 02:28N 42°21' W 071°01'0 0.0
2017-Sep-16 01:58N 42°21' W 071°01'0 0.0
2017-Sep-16 01:28N 42°21' W 071°01'0 0.7
2017-Sep-16 01:00N 42°21' W 071°01'3 5.5
2017-Sep-16 00:31N 42°20' W 070°57'5 9.2
2017-Sep-16 00:01N 42°23' W 070°53'4 8.7
2017-Sep-15 23:30N 42°24' W 070°47'3 6.7
2017-Sep-15 23:00N 42°23' W 070°42'4 7.8
2017-Sep-15 22:30N 42°22' W 070°37'612.0
2017-Sep-15 22:00N 42°21' W 070°29'612.3
2017-Sep-15 21:30N 42°21' W 070°21'612.7
2017-Sep-15 21:00N 42°20' W 070°12'612.7
2017-Sep-15 20:30N 42°20' W 070°04'611.1
2017-Sep-15 20:00N 42°16' W 069°58'612.4
2017-Sep-15 19:30N 42°11' W 069°54'612.3
2017-Sep-15 19:00N 42°05' W 069°50'1112.8
2017-Sep-15 18:08N 41°55' W 069°43'312.2
2017-Sep-15 17:53N 41°53' W 069°42'712.4
2017-Sep-15 17:18N 41°46' W 069°37'412.8
2017-Sep-15 17:00N 41°43' W 069°35'192 8.6
2017-Sep-14 18:44N 40°23' W 073°26'313.0
2017-Sep-14 18:29N 40°24' W 073°31'612.6
2017-Sep-14 17:58N 40°26' W 073°39'612.7
2017-Sep-14 17:30N 40°27' W 073°46'611.5
2017-Sep-14 17:01N 40°29' W 073°53'815.5
2017-Sep-14 16:31N 40°33' W 074°02'612.7
2017-Sep-14 16:00N 40°39' W 074°05'3 5.5
2017-Sep-14 15:30N 40°39' W 074°09'1 1.6
2017-Sep-14 15:00N 40°40' W 074°09'0 0.0
2017-Sep-14 14:30N 40°40' W 074°09'0 0.0
2017-Sep-14 14:00N 40°40' W 074°09'0 0.0
2017-Sep-14 13:30N 40°40' W 074°09'0 0.0
2017-Sep-14 13:00N 40°40' W 074°09'0 0.0
2017-Sep-14 12:30N 40°40' W 074°09'0 0.0
2017-Sep-14 12:00N 40°40' W 074°09'0 0.0
2017-Sep-14 11:30N 40°40' W 074°09'0 0.0
2017-Sep-14 11:00N 40°40' W 074°09'0 0.0
2017-Sep-14 10:30N 40°40' W 074°09'0 0.0
2017-Sep-14 10:00N 40°40' W 074°09'0 0.0
2017-Sep-14 09:30N 40°40' W 074°09'0 0.0
2017-Sep-14 09:00N 40°40' W 074°09'0 0.0
2017-Sep-14 08:30N 40°40' W 074°09'0 0.0
2017-Sep-14 08:00N 40°40' W 074°09'0 0.0
2017-Sep-14 07:30N 40°40' W 074°09'0 0.0
2017-Sep-14 07:00N 40°40' W 074°09'0 0.0
2017-Sep-14 06:30N 40°40' W 074°09'0 0.0
2017-Sep-14 06:00N 40°40' W 074°09'0 0.0
2017-Sep-14 05:30N 40°40' W 074°09'0 0.0
2017-Sep-14 05:00N 40°40' W 074°09'0 0.0
2017-Sep-14 04:30N 40°40' W 074°09'0 0.0
2017-Sep-14 04:00N 40°40' W 074°09'0 0.0
2017-Sep-14 03:30N 40°40' W 074°09'0 0.0
2017-Sep-14 03:00N 40°40' W 074°09'0 0.0
2017-Sep-14 02:30N 40°40' W 074°09'0 0.0
2017-Sep-14 02:00N 40°40' W 074°09'0 0.0
2017-Sep-14 01:30N 40°40' W 074°09'0 0.0
2017-Sep-14 01:00N 40°40' W 074°09'0 0.0
2017-Sep-14 00:30N 40°40' W 074°09'0 0.0
2017-Sep-14 00:00N 40°40' W 074°09'0 0.0
2017-Sep-13 23:30N 40°40' W 074°09'0 0.0
2017-Sep-13 23:00N 40°40' W 074°09'0 0.0
2017-Sep-13 22:30N 40°40' W 074°09'0 0.0
2017-Sep-13 22:00N 40°40' W 074°09'0 0.0
2017-Sep-13 21:30N 40°40' W 074°09'0 0.0
2017-Sep-13 21:00N 40°40' W 074°09'0 0.0
2017-Sep-13 20:30N 40°40' W 074°09'0 0.0
2017-Sep-13 20:00N 40°40' W 074°09'0 0.0
2017-Sep-13 19:30N 40°40' W 074°09'0 0.0
2017-Sep-13 19:00N 40°40' W 074°09'0 0.0
2017-Sep-13 18:27N 40°40' W 074°09'0 0.0
2017-Sep-13 18:00N 40°40' W 074°09'0 0.0
2017-Sep-13 17:30N 40°40' W 074°09'0 0.0
2017-Sep-13 17:00N 40°40' W 074°09'0 0.0
2017-Sep-13 16:30N 40°40' W 074°09'0 0.0
2017-Sep-13 16:00N 40°40' W 074°09'0 0.0
2017-Sep-13 15:30N 40°40' W 074°09'0 1.0
2017-Sep-13 15:00N 40°39' W 074°09'2 4.8
2017-Sep-13 14:30N 40°39' W 074°06'4 7.7
2017-Sep-13 14:00N 40°36' W 074°02'5 9.1
2017-Sep-13 13:30N 40°32' W 074°01'611.6
2017-Sep-13 13:00N 40°29' W 073°54'5 9.8
2017-Sep-13 12:30N 40°27' W 073°48'5 9.8
2017-Sep-13 12:00N 40°24' W 073°43'612.3
2017-Sep-13 11:30N 40°20' W 073°36'714.5
2017-Sep-13 11:00N 40°16' W 073°28'714.9
2017-Sep-13 10:31N 40°12' W 073°21'714.8
2017-Sep-13 10:01N 40°08' W 073°12'815.2
2017-Sep-13 09:31N 40°08' W 073°02'815.0
2017-Sep-13 09:00N 40°08' W 072°52'714.9
2017-Sep-13 08:30N 40°08' W 072°43'714.5
2017-Sep-13 08:00N 40°07' W 072°33'714.7
2017-Sep-13 07:30N 40°07' W 072°24'714.4
2017-Sep-13 07:00N 40°06' W 072°14'714.5
2017-Sep-13 06:30N 40°06' W 072°05'714.6
2017-Sep-13 06:00N 40°06' W 071°55'714.8
2017-Sep-13 05:30N 40°06' W 071°45'715.0
2017-Sep-13 05:00N 40°06' W 071°36'815.0
2017-Sep-13 04:30N 40°05' W 071°26'714.9
2017-Sep-13 04:00N 40°05' W 071°16'815.2
2017-Sep-13 03:30N 40°05' W 071°06'714.9
2017-Sep-13 03:00N 40°05' W 070°56'714.9
2017-Sep-13 02:31N 40°05' W 070°47'815.0
2017-Sep-13 02:00N 40°05' W 070°37'715.0
2017-Sep-13 01:30N 40°05' W 070°27'714.6
2017-Sep-13 01:00N 40°04' W 070°17'3 5.5
2017-Sep-13 00:31N 40°04' W 070°14'611.7
2017-Sep-13 00:00N 40°04' W 070°06'714.3
2017-Sep-12 23:30N 40°03' W 069°57'714.6
2017-Sep-12 23:00N 40°03' W 069°47'1014.6
2017-Sep-12 22:21N 40°02' W 069°35'514.5
2017-Sep-12 22:00N 40°02' W 069°29'814.4
2017-Sep-12 21:25N 40°02' W 069°18'614.5
2017-Sep-12 20:59N 40°02' W 069°09'  

Dump ship's entire track history